Time;durP1;ratioP1;P1;durP2;ratioP2;P2;SDS_P1;SDS_P2;PMS_P1;PMS_P2;Temp;Humidity;BMP_temperature;BMP_pressure;BME280_temperature;BME280_humidity;BME280_pressure;Samples;Min_cycle;Max_cycle;Signal;HPM_P1;HPM_P2
2024/02/23 00:01:11;;;;;;;0.40;0.40;;;;;;;3.91;82.71;96945.16;4981313;28;20051;-60
2024/02/23 00:03:38;;;;;;;0.38;0.38;;;;;;;3.87;83.06;96922.25;4981584;28;20062;-60
2024/02/23 00:06:06;;;;;;;0.40;0.40;;;;;;;3.85;84.10;96924.56;4982427;28;20058;-60
2024/02/23 00:08:33;;;;;;;0.40;0.40;;;;;;;3.59;83.82;96882.00;4983038;28;20043;-55
2024/02/23 00:11:00;;;;;;;0.40;0.40;;;;;;;3.79;84.18;96925.06;4982256;28;20497;-55
2024/02/23 00:13:27;;;;;;;0.40;0.40;;;;;;;3.78;85.05;96923.47;4104886;28;10000546;-60
2024/02/23 00:15:53;;;;;;;0.40;0.40;;;;;;;3.69;85.72;96926.22;4981860;28;20581;-56
2024/02/23 00:18:20;;;;;;;0.40;0.40;;;;;;;3.67;86.06;96917.53;4973810;28;20074;-54
2024/02/23 00:20:47;;;;;;;0.40;0.40;;;;;;;3.68;86.70;96919.16;4963371;28;20203;-60
2024/02/23 00:23:14;;;;;;;0.40;0.40;;;;;;;3.70;86.86;96927.03;4963842;28;20441;-55
2024/02/23 00:25:41;;;;;;;0.40;0.40;;;;;;;3.21;86.55;96843.66;4963749;28;20046;-55
2024/02/23 00:28:08;;;;;;;0.40;0.40;;;;;;;3.72;86.86;96917.34;4963593;28;20063;-60
2024/02/23 00:30:35;;;;;;;0.40;0.40;;;;;;;3.19;88.05;96845.94;4980922;28;20055;-60
2024/02/23 00:33:03;;;;;;;0.40;0.40;;;;;;;3.66;87.26;96910.47;4983665;28;20480;-60
2024/02/23 00:35:30;;;;;;;0.40;0.40;;;;;;;3.59;87.97;96891.00;4982538;28;20062;-60
2024/02/23 00:37:56;;;;;;;0.40;0.40;;;;;;;2.66;88.00;96758.09;4981575;28;20054;-55
2024/02/23 00:40:23;;;;;;;0.40;0.40;;;;;;;3.27;88.29;96842.34;4982782;28;20058;-60
2024/02/23 00:42:50;;;;;;;0.40;0.40;;;;;;;3.70;88.65;96894.97;4982749;28;20069;-57
2024/02/23 00:45:17;;;;;;;0.40;0.40;;;;;;;3.58;89.15;96908.56;4982437;28;20050;-55
2024/02/23 00:47:45;;;;;;;0.40;0.40;;;;;;;3.72;88.50;96900.91;4982734;28;20061;-60
2024/02/23 00:50:13;;;;;;;0.40;0.40;;;;;;;3.13;87.07;96808.91;4982645;28;20120;-55
2024/02/23 00:52:41;;;;;;;0.40;0.40;;;;;;;3.47;86.54;96860.78;4987047;28;20753;-55
2024/02/23 00:55:08;;;;;;;0.40;0.40;;;;;;;3.89;86.97;96898.09;4986432;28;20108;-60
2024/02/23 00:57:35;;;;;;;0.40;0.40;;;;;;;3.88;86.45;96885.53;4986658;28;20061;-55
2024/02/23 01:00:05;;;;;;;0.40;0.40;;;;;;;3.87;86.70;96894.88;4985560;28;20414;-55
2024/02/23 01:02:33;;;;;;;0.40;0.40;;;;;;;3.72;86.84;96903.66;4984721;28;20081;-54
2024/02/23 01:05:00;;;;;;;0.40;0.40;;;;;;;3.43;88.35;96897.34;4985970;28;20077;-54
2024/02/23 01:07:27;;;;;;;0.40;0.40;;;;;;;3.39;89.06;96889.00;4986689;28;20054;-54
2024/02/23 01:09:54;;;;;;;0.40;0.40;;;;;;;3.46;88.82;96893.97;4986738;28;20140;-54
2024/02/23 01:12:21;;;;;;;0.40;0.40;;;;;;;3.05;88.36;96823.44;4986550;28;20137;-60
2024/02/23 01:14:48;;;;;;;0.40;0.40;;;;;;;2.95;87.86;96801.91;4985668;28;20046;-57
2024/02/23 01:17:15;;;;;;;0.40;0.40;;;;;;;3.56;88.19;96879.88;4985966;28;20058;-60
2024/02/23 01:19:44;;;;;;;0.40;0.40;;;;;;;3.44;87.08;96891.56;4985525;28;20585;-60
2024/02/23 01:22:11;;;;;;;0.40;0.40;;;;;;;3.33;87.54;96862.94;4985544;28;20606;-55
2024/02/23 01:24:38;;;;;;;0.40;0.40;;;;;;;3.53;87.57;96878.63;4984104;28;20063;-60
2024/02/23 01:27:05;;;;;;;0.40;0.40;;;;;;;2.99;87.35;96791.91;4985816;28;20072;-59
2024/02/23 01:29:32;;;;;;;0.40;0.40;;;;;;;3.39;88.01;96872.56;4985479;28;20061;-57
2024/02/23 01:31:59;;;;;;;0.38;0.38;;;;;;;2.70;88.79;96780.94;4985654;28;20100;-55
2024/02/23 01:34:26;;;;;;;0.40;0.40;;;;;;;3.32;89.71;96869.53;4985594;28;20050;-55
2024/02/23 01:36:53;;;;;;;0.40;0.40;;;;;;;3.28;90.25;96868.59;4984234;28;20050;-55
2024/02/23 01:39:20;;;;;;;0.40;0.40;;;;;;;2.84;89.31;96784.25;4984597;28;20050;-57
2024/02/23 01:41:47;;;;;;;0.40;0.40;;;;;;;3.26;89.37;96835.25;4985749;28;20050;-62
2024/02/23 01:44:15;;;;;;;0.35;0.35;;;;;;;3.52;88.33;96848.84;4984219;28;20054;-60
2024/02/23 01:46:42;;;;;;;0.40;0.40;;;;;;;3.60;86.94;96856.22;4985088;28;20141;-60
2024/02/23 01:49:09;;;;;;;0.40;0.40;;;;;;;3.59;86.94;96855.38;4985786;28;20056;-60
2024/02/23 01:51:36;;;;;;;0.40;0.40;;;;;;;3.66;86.99;96860.34;4985280;28;20085;-61
2024/02/23 01:54:03;;;;;;;0.40;0.40;;;;;;;3.61;86.91;96858.63;4985710;28;20077;-55
2024/02/23 01:56:32;;;;;;;0.40;0.40;;;;;;;3.58;86.34;96864.75;4983560;28;20058;-60
2024/02/23 01:59:02;;;;;;;0.40;0.40;;;;;;;3.51;86.79;96858.97;4985026;28;20062;-55
2024/02/23 02:01:31;;;;;;;0.40;0.40;;;;;;;3.47;86.73;96851.75;4985023;28;20054;-54
2024/02/23 02:04:01;;;;;;;0.40;0.40;;;;;;;2.81;86.33;96752.09;4985017;28;20058;-60
2024/02/23 02:06:28;;;;;;;0.40;0.40;;;;;;;3.30;87.49;96830.75;4985013;28;20132;-55
2024/02/23 02:08:54;;;;;;;0.40;0.40;;;;;;;2.96;87.24;96770.69;4985505;28;20042;-56
2024/02/23 02:11:21;;;;;;;0.40;0.40;;;;;;;3.52;87.81;96849.66;4985139;28;20050;-60
2024/02/23 02:13:48;;;;;;;0.30;0.30;;;;;;;3.38;87.20;96827.19;4985179;28;20093;-55
2024/02/23 02:16:15;;;;;;;0.40;0.40;;;;;;;2.95;87.62;96769.09;4984660;28;20058;-54
2024/02/23 02:18:44;;;;;;;0.40;0.40;;;;;;;3.41;87.53;96848.41;4984319;28;20058;-57
2024/02/23 02:21:11;;;;;;;0.40;0.40;;;;;;;3.09;87.08;96792.38;4985106;28;20054;-60
2024/02/23 02:23:38;;;;;;;0.40;0.40;;;;;;;2.61;88.39;96739.13;4984528;28;20513;-59
2024/02/23 02:26:05;;;;;;;0.40;0.40;;;;;;;3.29;87.68;96859.22;4982687;28;20746;-60
2024/02/23 02:28:32;;;;;;;0.30;0.30;;;;;;;2.89;87.75;96814.16;4982815;28;20124;-60
2024/02/23 02:30:59;;;;;;;0.30;0.30;;;;;;;3.20;87.72;96853.00;4984353;28;20429;-60
2024/02/23 02:33:25;;;;;;;0.35;0.35;;;;;;;3.04;88.87;96876.53;4984346;28;20047;-57
2024/02/23 02:35:52;;;;;;;0.40;0.40;;;;;;;2.96;90.15;96852.75;4984328;28;20601;-54
2024/02/23 02:38:19;;;;;;;0.40;0.40;;;;;;;2.88;91.07;96856.31;4985310;28;20069;-55
2024/02/23 02:40:46;;;;;;;0.32;0.32;;;;;;;2.83;91.28;96840.06;4985516;28;20050;-57
2024/02/23 02:43:13;;;;;;;0.30;0.30;;;;;;;2.95;91.02;96857.44;4983717;28;20050;-55
2024/02/23 02:45:39;;;;;;;0.40;0.40;;;;;;;3.07;89.66;96859.47;4984227;28;20051;-60
2024/02/23 02:48:07;;;;;;;0.30;0.30;;;;;;;3.05;89.35;96861.75;4983986;28;20057;-56
2024/02/23 02:50:34;;;;;;;0.40;0.40;;;;;;;3.02;90.25;96852.25;4982695;28;20552;-54
2024/02/23 02:53:00;;;;;;;0.40;0.40;;;;;;;2.97;91.18;96855.16;4982677;28;20074;-60
2024/02/23 02:55:27;;;;;;;0.40;0.40;;;;;;;2.59;92.39;96831.63;4983859;28;20092;-59
2024/02/23 02:57:54;;;;;;;0.30;0.30;;;;;;;2.36;94.03;96816.50;4984374;28;20042;-59
2024/02/23 03:00:21;;;;;;;0.30;0.30;;;;;;;2.67;93.48;96856.19;4980058;28;20108;-60
2024/02/23 03:02:47;;;;;;;0.38;0.38;;;;;;;2.75;93.06;96860.06;4963159;28;20062;-60
2024/02/23 03:05:14;;;;;;;0.40;0.40;;;;;;;2.62;92.50;96834.50;4964497;28;20434;-60
2024/02/23 03:07:41;;;;;;;0.40;0.40;;;;;;;2.62;91.88;96841.91;4964112;28;20058;-60
2024/02/23 03:10:08;;;;;;;0.40;0.40;;;;;;;1.98;91.62;96739.09;4964165;28;20050;-60
2024/02/23 03:12:35;;;;;;;0.30;0.30;;;;;;;2.78;91.19;96856.66;4964781;28;20055;-60
2024/02/23 03:15:05;;;;;;;0.30;0.30;;;;;;;2.60;90.35;96838.69;4964120;28;20059;-60
2024/02/23 03:17:32;;;;;;;0.30;0.30;;;;;;;2.76;91.20;96858.91;4964283;28;20043;-60
2024/02/23 03:19:59;;;;;;;0.40;0.40;;;;;;;2.45;90.34;96812.66;4964072;28;20050;-57
2024/02/23 03:22:27;;;;;;;0.32;0.32;;;;;;;2.70;90.37;96858.28;4962673;28;20050;-57
2024/02/23 03:24:53;;;;;;;0.40;0.40;;;;;;;2.60;90.56;96853.16;4963960;28;20059;-54
2024/02/23 03:27:28;;;;;;;0.40;0.40;;;;;;;2.62;90.40;96852.84;4964060;28;20066;-56
2024/02/23 03:29:54;;;;;;;0.40;0.40;;;;;;;2.61;90.34;96851.22;4974973;28;20046;-60
2024/02/23 03:32:21;;;;;;;0.30;0.30;;;;;;;2.53;90.62;96852.06;4983790;28;20054;-60
2024/02/23 03:34:48;;;;;;;0.35;0.35;;;;;;;2.47;90.72;96839.66;4983830;28;20466;-60
2024/02/23 03:37:15;;;;;;;0.40;0.40;;;;;;;2.57;91.00;96855.72;4971644;28;20058;-60
2024/02/23 03:39:41;;;;;;;0.30;0.30;;;;;;;1.67;90.21;96702.97;4963989;28;20073;-61
2024/02/23 03:42:08;;;;;;;0.30;0.30;;;;;;;2.00;91.07;96775.09;4962627;28;20058;-60
2024/02/23 03:44:35;;;;;;;0.40;0.40;;;;;;;2.49;91.20;96848.34;4963943;28;20061;-54
2024/02/23 03:47:02;;;;;;;0.30;0.30;;;;;;;2.07;91.10;96780.88;4964668;28;20050;-56
2024/02/23 03:49:29;;;;;;;0.30;0.30;;;;;;;2.45;91.54;96853.66;4963865;28;20050;-55
2024/02/23 03:51:56;;;;;;;0.40;0.40;;;;;;;2.46;92.00;96849.00;4963640;28;20501;-54
2024/02/23 03:54:22;;;;;;;0.30;0.30;;;;;;;2.45;92.59;96852.88;4962150;28;20058;-56
2024/02/23 03:56:49;;;;;;;0.30;0.30;;;;;;;1.92;91.44;96763.03;4963366;28;20532;-55
2024/02/23 03:59:16;;;;;;;0.30;0.30;;;;;;;2.11;91.34;96798.22;4963517;28;20063;-61
2024/02/23 04:01:44;;;;;;;0.30;0.30;;;;;;;2.42;92.32;96848.03;4961929;28;20055;-60
2024/02/23 04:04:10;;;;;;;0.30;0.30;;;;;;;2.54;91.98;96845.44;4962118;28;20125;-57
2024/02/23 04:06:37;;;;;;;0.40;0.40;;;;;;;2.53;92.07;96852.84;4963536;28;20051;-60
2024/02/23 04:09:04;;;;;;;0.30;0.30;;;;;;;2.50;92.96;96849.94;4963388;28;20061;-59
2024/02/23 04:11:32;;;;;;;0.30;0.30;;;;;;;2.51;93.45;96846.09;4963354;28;20513;-60
2024/02/23 04:14:00;;;;;;;0.40;0.40;;;;;;;2.55;93.16;96841.56;4961902;28;20047;-54
2024/02/23 04:16:27;;;;;;;0.38;0.38;;;;;;;2.56;92.63;96843.97;4961724;28;20245;-60
2024/02/23 04:18:54;;;;;;;0.32;0.32;;;;;;;2.57;92.13;96844.78;4950305;28;20059;-60
2024/02/23 04:21:21;;;;;;;0.40;0.40;;;;;;;2.47;91.86;96850.59;4963363;28;20169;-60
2024/02/23 04:23:48;;;;;;;0.40;0.40;;;;;;;2.47;91.85;96845.13;4961652;28;20046;-62
2024/02/23 04:26:15;;;;;;;0.38;0.38;;;;;;;2.46;91.85;96849.00;4965670;28;20094;-60
2024/02/23 04:28:42;;;;;;;0.30;0.30;;;;;;;2.42;92.41;96842.56;4967183;28;20082;-60
2024/02/23 04:31:09;;;;;;;0.40;0.40;;;;;;;1.84;92.93;96749.38;4986967;28;20513;-55
2024/02/23 04:33:37;;;;;;;0.30;0.30;;;;;;;2.12;92.76;96794.38;4987418;28;20293;-54
2024/02/23 04:36:06;;;;;;;0.40;0.40;;;;;;;2.29;92.99;96816.22;4985007;28;20127;-60
2024/02/23 04:38:34;;;;;;;0.40;0.40;;;;;;;2.18;93.05;96798.56;4986787;28;20093;-55
2024/02/23 04:41:07;;;;;;;0.30;0.30;;;;;;;1.99;93.04;96779.72;4986137;28;20054;-60
2024/02/23 04:43:34;;;;;;;;;;;;;;;2.40;93.12;96853.03;4986606;28;20124;-56
2024/02/23 04:46:01;;;;;;;0.40;0.40;;;;;;;2.24;92.73;96840.97;4985347;28;19965;-60
2024/02/23 04:48:28;;;;;;;0.30;0.30;;;;;;;2.23;93.44;96844.84;4986579;28;20046;-60
2024/02/23 04:50:55;;;;;;;0.30;0.30;;;;;;;2.26;94.80;96839.50;4986333;28;20473;-55
2024/02/23 04:53:22;;;;;;;0.30;0.30;;;;;;;2.05;95.43;96815.91;4986792;28;20073;-55
2024/02/23 04:55:49;;;;;;;0.30;0.30;;;;;;;2.07;96.54;96835.50;4986116;28;20058;-55
2024/02/23 04:58:15;;;;;;;0.32;0.32;;;;;;;2.15;96.06;96842.91;4986715;28;20520;-60
2024/02/23 05:00:42;;;;;;;0.30;0.30;;;;;;;2.08;96.85;96845.31;4985766;28;20514;-54
2024/02/23 05:03:09;;;;;;;0.30;0.30;;;;;;;2.06;97.00;96817.50;4984736;28;20050;-60
2024/02/23 05:05:38;;;;;;;0.40;0.40;;;;;;;2.15;96.69;96832.75;4985888;28;20046;-60
2024/02/23 05:08:06;;;;;;;0.30;0.30;;;;;;;2.06;96.49;96809.28;4986495;28;20054;-60
2024/02/23 05:10:33;;;;;;;0.30;0.30;;;;;;;2.36;95.43;96835.66;4986758;28;20576;-54
2024/02/23 05:12:59;;;;;;;0.40;0.40;;;;;;;2.38;93.87;96841.59;4986462;28;20081;-55
2024/02/23 05:15:26;;;;;;;0.38;0.38;;;;;;;2.23;92.15;96836.63;4985974;28;20534;-54
2024/02/23 05:17:53;;;;;;;0.30;0.30;;;;;;;2.15;92.39;96853.84;4986268;28;20065;-60
2024/02/23 05:20:20;;;;;;;0.30;0.30;;;;;;;2.14;93.04;96846.75;4984991;28;20051;-55
2024/02/23 05:22:47;;;;;;;0.30;0.30;;;;;;;2.12;93.07;96841.59;4985206;28;20058;-56
2024/02/23 05:25:14;;;;;;;0.40;0.40;;;;;;;2.08;93.54;96848.03;4983339;28;20089;-60
2024/02/23 05:27:40;;;;;;;0.30;0.30;;;;;;;2.18;93.38;96843.03;4984101;28;20081;-60
2024/02/23 05:30:08;;;;;;;0.30;0.30;;;;;;;2.17;93.22;96851.56;4983837;28;20046;-61
2024/02/23 05:32:34;;;;;;;0.40;0.40;;;;;;;2.18;94.29;96842.25;4984650;28;20050;-55
2024/02/23 05:35:03;;;;;;;0.30;0.30;;;;;;;2.13;94.96;96826.03;4984191;28;20215;-61
2024/02/23 05:37:30;;;;;;;0.38;0.38;;;;;;;2.04;95.68;96803.38;4984454;28;20054;-61
2024/02/23 05:39:59;;;;;;;0.40;0.40;;;;;;;2.18;95.89;96836.78;4983030;28;20062;-55
2024/02/23 05:42:45;;;;;;;0.30;0.30;;;;;;;2.15;96.39;96872.97;4983282;28;20039;-55
2024/02/23 05:45:12;;;;;;;0.32;0.32;;;;;;;2.25;96.49;96834.38;4962937;28;20549;-56
2024/02/23 05:47:39;;;;;;;0.30;0.30;;;;;;;2.53;96.10;96852.06;4963288;28;20053;-60
2024/02/23 05:50:10;;;;;;;0.40;0.40;;;;;;;2.51;95.04;96835.16;4962881;28;20549;-60
2024/02/23 05:52:39;;;;;;;0.30;0.30;;;;;;;2.74;94.23;96858.44;4963701;28;20074;-55
2024/02/23 05:55:06;;;;;;;0.40;0.40;;;;;;;2.85;91.70;96856.97;4962307;28;20058;-55
2024/02/23 05:57:33;;;;;;;0.40;0.40;;;;;;;2.91;90.97;96943.19;4962239;28;20062;-55
2024/02/23 05:59:59;;;;;;;0.40;0.40;;;;;;;3.01;90.71;96855.31;4962557;28;20134;-57
2024/02/23 06:02:26;;;;;;;0.40;0.40;;;;;;;3.15;91.35;96855.13;4964060;28;20082;-60
2024/02/23 06:04:53;;;;;;;0.40;0.40;;;;;;;3.29;90.45;96933.13;4964008;28;20050;-55
2024/02/23 06:07:26;;;;;;;0.40;0.40;;;;;;;3.15;89.93;96864.13;4978488;28;20058;-55
2024/02/23 06:09:53;;;;;;;;;;;;;;;3.22;90.41;96867.16;4965035;28;20050;-55
2024/02/23 06:12:20;;;;;;;0.30;0.30;;;;;;;2.92;91.89;96847.13;4964764;28;20334;-55
2024/02/23 06:14:46;;;;;;;0.40;0.40;;;;;;;3.28;92.42;96879.53;4964202;28;20055;-55
2024/02/23 06:17:13;;;;;;;0.40;0.40;;;;;;;3.39;92.42;96878.03;4963215;28;20061;-61
2024/02/23 06:19:40;;;;;;;0.40;0.40;;;;;;;3.61;91.95;96863.28;4924213;28;1199589;-55
2024/02/23 06:22:09;;;;;;;0.40;0.40;;;;;;;1.34;90.67;96452.47;4965684;28;20057;-60
2024/02/23 06:24:36;;;;;;;0.40;0.40;;;;;;;4.23;90.80;96886.94;4965899;28;20050;-57
2024/02/23 06:27:03;;;;;;;0.40;0.40;;;;;;;4.10;89.77;96833.16;4964483;28;20046;-56
2024/02/23 06:29:30;;;;;;;0.40;0.40;;;;;;;4.76;89.50;96874.41;4969641;28;20553;-60
2024/02/23 06:31:57;;;;;;;0.40;0.40;;;;;;;5.03;89.07;96882.00;4984479;28;20054;-61
2024/02/23 06:34:24;;;;;;;0.50;0.50;;;;;;;5.26;86.99;96869.50;4984209;28;20062;-60
2024/02/23 06:36:51;;;;;;;0.50;0.50;;;;;;;5.05;85.07;96820.16;4982613;28;20532;-55
2024/02/23 06:39:19;;;;;;;0.50;0.50;;;;;;;5.28;83.94;96843.28;4984200;28;20422;-56
2024/02/23 06:41:46;;;;;;;0.50;0.50;;;;;;;5.69;83.22;96872.53;4984073;28;20061;-56
2024/02/23 06:44:13;;;;;;;0.50;0.50;;;;;;;5.78;83.20;96851.22;4982899;28;20597;-55
2024/02/23 06:46:40;;;;;;;0.60;0.60;;;;;;;5.76;82.80;96817.78;4984374;28;20074;-60
2024/02/23 06:49:07;;;;;;;0.55;0.55;;;;;;;5.87;82.93;96811.53;4983416;28;20054;-56
2024/02/23 06:51:35;;;;;;;0.50;0.50;;;;;;;6.45;81.05;96884.38;4984834;28;20046;-58
2024/02/23 06:54:03;;;;;;;0.60;0.60;;;;;;;6.58;79.49;96880.47;4983137;28;20066;-55
2024/02/23 06:56:30;;;;;;;0.55;0.55;;;;;;;6.50;78.54;96836.56;4984607;28;20509;-61
2024/02/23 06:58:57;;;;;;;0.60;0.60;;;;;;;6.84;77.52;96864.31;4982670;28;20144;-60
2024/02/23 07:01:23;;;;;;;0.60;0.60;;;;;;;6.83;76.46;96861.94;4982502;28;20057;-65
2024/02/23 07:03:50;;;;;;;0.60;0.60;;;;;;;6.99;75.88;96877.31;4983060;28;20054;-61
2024/02/23 07:06:18;;;;;;;0.60;0.60;;;;;;;7.23;75.82;96863.44;4983776;28;20061;-58
2024/02/23 07:08:45;;;;;;;0.60;0.60;;;;;;;7.53;75.39;96875.66;4983899;28;20056;-60
2024/02/23 07:11:12;;;;;;;0.60;0.60;;;;;;;7.68;75.38;96872.09;4982401;28;20058;-59
2024/02/23 07:13:43;;;;;;;0.70;0.70;;;;;;;7.41;74.67;96811.56;4983068;28;20329;-65
2024/02/23 07:16:10;;;;;;;0.60;0.60;;;;;;;8.00;72.82;96875.63;4982187;28;20085;-61
2024/02/23 07:18:37;;;;;;;0.60;0.60;;;;;;;8.10;72.45;96866.00;4983225;28;20054;-59
2024/02/23 07:21:03;;;;;;;0.70;0.70;;;;;;;7.83;72.33;96806.25;4982480;28;20053;-67
2024/02/23 07:23:30;;;;;;;0.70;0.70;;;;;;;8.27;71.89;96871.16;4982731;28;20053;-57
2024/02/23 07:25:57;;;;;;;0.70;0.70;;;;;;;8.13;72.06;96824.72;4966680;28;20133;-62
2024/02/23 07:28:24;;;;;;;0.70;0.70;;;;;;;8.52;71.25;96861.50;4964213;28;20105;-58
2024/02/23 07:30:51;;;;;;;0.70;0.70;;;;;;;8.34;72.89;96865.81;4974024;28;20042;-57
2024/02/23 07:33:18;;;;;;;0.70;0.70;;;;;;;7.88;76.12;96869.41;4975022;28;20053;-63
2024/02/23 07:35:45;;;;;;;0.70;0.70;;;;;;;7.87;76.60;96848.53;4969898;28;20409;-58
2024/02/23 07:38:12;;;;;;;0.70;0.70;;;;;;;7.86;77.96;96860.69;4978748;28;20606;-64
2024/02/23 07:40:39;;;;;;;0.70;0.70;;;;;;;7.88;77.29;96792.19;4963543;28;20146;-62
2024/02/23 07:43:06;;;;;;;0.70;0.70;;;;;;;8.59;75.28;96845.06;4973636;28;20161;-56
2024/02/23 07:45:34;;;;;;;0.60;0.60;;;;;;;8.74;74.43;96847.75;4970316;28;20237;-55
2024/02/23 07:48:00;;;;;;;0.70;0.70;;;;;;;9.07;74.74;96850.00;4984555;28;20042;-58
2024/02/23 07:50:28;;;;;;;0.80;0.80;;;;;;;9.20;74.01;96849.47;4978125;28;20125;-63
2024/02/23 07:52:54;;;;;;;0.80;0.80;;;;;;;8.46;75.64;96780.13;4964516;28;20046;-57
2024/02/23 07:55:22;;;;;;;0.70;0.70;;;;;;;9.18;74.46;96834.44;4964256;28;20099;-59
2024/02/23 07:57:48;;;;;;;0.70;0.70;;;;;;;9.36;73.93;96807.91;4981127;28;20054;-54
2024/02/23 08:00:16;;;;;;;0.80;0.80;;;;;;;9.85;72.23;96836.41;4979155;28;20065;-57
2024/02/23 08:02:42;;;;;;;0.80;0.80;;;;;;;10.15;70.88;96829.00;4978937;28;20061;-56
2024/02/23 08:05:09;;;;;;;0.80;0.80;;;;;;;9.64;70.67;96733.72;4978230;28;20523;-54
2024/02/23 08:07:37;;;;;;;0.90;0.90;;;;;;;10.39;70.30;96830.53;4982274;28;20229;-60
2024/02/23 08:10:04;;;;;;;0.80;0.80;;;;;;;10.55;70.12;96820.91;4976684;28;20736;-56
2024/02/23 08:12:31;;;;;;;0.90;0.90;;;;;;;10.37;69.90;96781.09;4969091;28;20088;-61
2024/02/23 08:14:58;;;;;;;0.88;0.88;;;;;;;10.72;70.36;96829.81;4991153;28;20112;-62
2024/02/23 08:17:25;;;;;;;0.90;0.90;;;;;;;9.21;69.93;96573.94;4974403;28;20054;-58
2024/02/23 08:19:54;;;;;;;0.90;0.90;;;;;;;10.51;70.78;96825.56;4983931;28;20053;-61
2024/02/23 08:22:23;;;;;;;0.80;0.80;;;;;;;10.03;73.87;96842.22;4976583;28;20058;-62
2024/02/23 08:24:50;;;;;;;0.80;0.80;;;;;;;10.25;73.86;96828.38;4973773;28;20082;-59
2024/02/23 08:27:16;;;;;;;0.80;0.80;;;;;;;10.65;72.70;96825.75;4970254;28;20418;-59
2024/02/23 08:29:43;;;;;;;0.80;0.80;;;;;;;10.55;71.74;96820.91;4968862;28;20089;-59
2024/02/23 08:32:10;;;;;;;0.80;0.80;;;;;;;10.40;72.26;96794.16;4973979;28;20042;-59
2024/02/23 08:34:37;;;;;;;0.90;0.90;;;;;;;10.38;71.44;96793.78;4980707;28;20483;-59
2024/02/23 08:37:04;;;;;;;0.82;0.82;;;;;;;10.63;71.71;96827.31;4979517;28;20069;-58
2024/02/23 08:39:30;;;;;;;0.90;0.90;;;;;;;11.03;71.25;96815.53;4990215;28;20045;-59
2024/02/23 08:41:57;;;;;;;0.80;0.80;;;;;;;11.18;68.81;96809.78;4999271;28;20500;-56
2024/02/23 08:44:24;;;;;;;0.90;0.90;;;;;;;11.12;67.04;96771.69;4971652;28;20066;-61
2024/02/23 08:46:51;;;;;;;0.93;0.93;;;;;;;11.59;66.60;96816.91;4968897;28;20414;-61
2024/02/23 08:49:18;;;;;;;0.90;0.90;;;;;;;11.85;65.56;96810.44;4980900;28;20061;-64
2024/02/23 08:51:45;;;;;;;0.90;0.90;;;;;;;11.77;63.71;96814.34;4964804;28;20417;-56
2024/02/23 08:54:11;;;;;;;0.82;0.82;;;;;;;11.92;62.87;96813.25;4979552;28;20058;-59
2024/02/23 08:56:39;;;;;;;0.90;0.90;;;;;;;12.10;62.72;96803.09;4980179;28;20146;-56
2024/02/23 08:59:06;;;;;;;0.90;0.90;;;;;;;12.33;60.88;96803.63;4964939;28;20043;-59
2024/02/23 09:01:33;;;;;;;0.90;0.90;;;;;;;12.10;60.91;96775.34;4966108;28;20090;-61
2024/02/23 09:04:00;;;;;;;1.05;1.05;;;;;;;12.69;60.63;96805.47;4977069;28;20054;-61
2024/02/23 09:06:27;;;;;;;1.00;1.00;;;;;;;12.63;59.33;96783.97;4980623;28;20058;-57
2024/02/23 09:08:54;;;;;;;1.00;1.00;;;;;;;12.35;59.78;96776.28;4982640;28;20051;-60
2024/02/23 09:11:21;;;;;;;1.00;1.00;;;;;;;12.74;60.16;96807.84;4983438;28;20050;-55
2024/02/23 09:13:47;;;;;;;1.00;1.00;;;;;;;12.90;58.57;96786.06;4986246;28;20509;-57
2024/02/23 09:16:14;;;;;;;1.10;1.10;;;;;;;13.30;58.72;96813.66;4984122;28;20050;-60
2024/02/23 09:18:41;;;;;;;1.15;1.15;;;;;;;13.61;57.87;96810.13;4985832;28;20062;-57
2024/02/23 09:21:08;;;;;;;1.20;1.20;;;;;;;13.18;56.49;96738.91;4985785;28;20085;-57
2024/02/23 09:23:35;;;;;;;1.30;1.30;;;;;;;13.67;56.59;96766.00;4985499;28;20058;-58
2024/02/23 09:26:08;;;;;;;1.25;1.25;;;;;;;13.64;55.56;96772.38;4985545;28;20057;-57
2024/02/23 09:28:35;;;;;;;1.30;1.30;;;;;;;13.98;55.19;96803.38;4985808;28;20058;-59
2024/02/23 09:31:03;;;;;;;1.23;1.23;;;;;;;14.13;54.57;96799.41;4985686;28;20467;-63
2024/02/23 09:33:30;;;;;;;1.00;1.00;;;;;;;13.94;54.39;96797.03;4985146;28;20168;-64
2024/02/23 09:35:58;;;;;;;1.10;1.10;;;;;;;14.20;54.12;96804.97;4985161;28;20073;-67
2024/02/23 09:39:17;;;;;;;1.30;1.30;;;;;;;14.42;54.73;96756.38;4980331;28;20938;-61
2024/02/23 09:41:45;;;;;;;1.27;1.27;;;;;;;14.78;52.92;96788.53;4978854;28;20050;-71
2024/02/23 09:44:13;;;;;;;1.45;1.45;;;;;;;14.70;51.44;96745.19;4979531;28;20050;-63
2024/02/23 09:46:40;;;;;;;1.27;1.27;;;;;;;14.95;50.87;96782.88;4979845;28;20133;-61
2024/02/23 09:49:08;;;;;;;1.38;1.38;;;;;;;15.16;50.81;96780.00;4978148;28;20065;-56
2024/02/23 09:51:36;;;;;;;1.35;1.35;;;;;;;15.40;49.95;96781.09;4978980;28;20078;-68
2024/02/23 09:54:03;;;;;;;1.45;1.45;;;;;;;14.87;49.30;96724.78;4980394;28;20062;-62
2024/02/23 09:56:30;;;;;;;1.40;1.40;;;;;;;15.33;49.83;96772.75;4979858;28;20525;-58
2024/02/23 09:59:01;;;;;;;1.50;1.50;;;;;;;15.58;49.77;96773.41;4980315;28;20385;-62
2024/02/23 10:01:32;;;;;;;1.50;1.50;;;;;;;15.96;48.63;96766.75;4980165;28;20062;-61
2024/02/23 10:04:03;;;;;;;1.40;1.40;;;;;;;15.92;47.75;96760.38;4979893;28;20055;-62
2024/02/23 10:06:30;;;;;;;1.40;1.40;;;;;;;15.84;47.20;96747.66;4964056;28;20077;-59
2024/02/23 10:08:57;;;;;;;1.50;1.50;;;;;;;16.03;47.18;96755.50;4960353;28;20050;-60
2024/02/23 10:11:25;;;;;;;1.60;1.60;;;;;;;16.16;46.57;96750.97;4960538;28;20080;-58
2024/02/23 10:13:52;;;;;;;1.60;1.60;;;;;;;15.90;47.09;96745.25;4970804;28;20058;-62
2024/02/23 10:16:20;;;;;;;1.60;1.60;;;;;;;16.25;46.83;96744.91;4979649;28;20047;-57
2024/02/23 10:18:50;;;;;;;1.60;1.60;;;;;;;16.20;46.43;96723.00;4979757;28;20054;-58
2024/02/23 10:21:17;;;;;;;1.50;1.50;;;;;;;15.93;45.74;96666.97;4979600;28;20050;-58
2024/02/23 10:23:45;;;;;;;1.75;1.75;;;;;;;16.18;45.97;96656.34;4977962;28;20430;-59
2024/02/23 10:26:12;;;;;;;1.70;1.70;;;;;;;16.93;45.41;96720.59;4979148;28;20057;-61
2024/02/23 10:28:38;;;;;;;1.70;1.70;;;;;;;17.04;43.08;96722.03;4974861;28;20054;-56
2024/02/23 10:31:06;;;;;;;1.50;1.50;;;;;;;16.54;42.91;96645.56;4960814;28;20101;-70
2024/02/23 10:33:38;;;;;;;1.60;1.60;;;;;;;16.39;42.96;96628.13;4980038;28;20058;-59
2024/02/23 10:36:08;;;;;;;1.70;1.70;;;;;;;16.70;43.16;96647.75;4979430;28;20058;-57
2024/02/23 10:38:39;;;;;;;1.70;1.70;;;;;;;17.35;42.45;96711.59;4991711;28;20149;-58
2024/02/23 10:41:08;;;;;;;1.60;1.60;;;;;;;17.19;41.73;96692.63;4998711;28;20112;-60
2024/02/23 10:43:46;;;;;;;1.67;1.67;;;;;;;17.33;41.42;96689.63;4996970;28;20046;-68
2024/02/23 10:46:13;;;;;;;1.80;1.80;;;;;;;17.34;41.29;96727.59;4998647;28;20070;-63
2024/02/23 10:48:44;;;;;;;1.80;1.80;;;;;;;17.36;40.82;96690.78;4996245;28;20743;-62
2024/02/23 10:51:14;;;;;;;1.52;1.52;;;;;;;16.29;41.62;96595.53;4979608;28;20051;-63
2024/02/23 10:53:48;;;;;;;1.70;1.70;;;;;;;17.02;41.51;96687.28;4983461;28;20489;-64
2024/02/23 10:56:15;;;;;;;1.60;1.60;;;;;;;17.15;41.31;96679.91;4973249;28;20078;-62
2024/02/23 10:58:42;;;;;;;1.60;1.60;;;;;;;17.17;41.83;96655.88;4980448;28;20077;-59
2024/02/23 11:01:10;;;;;;;1.70;1.70;;;;;;;17.55;40.99;96670.50;4974905;28;20177;-57
2024/02/23 11:03:40;;;;;;;1.90;1.90;;;;;;;17.52;40.87;96671.34;4976180;28;20073;-57
2024/02/23 11:06:07;;;;;;;1.70;1.70;;;;;;;17.07;41.62;96675.63;4967979;28;20069;-58
2024/02/23 11:08:37;;;;;;;1.55;1.55;;;;;;;16.96;41.37;96633.78;4985022;28;20046;-62
2024/02/23 11:11:11;;;;;;;1.60;1.60;;;;;;;17.67;40.53;96672.72;4978699;28;20062;-63
2024/02/23 11:13:40;;;;;;;1.75;1.75;;;;;;;17.81;40.62;96666.88;4969647;28;20053;-63
2024/02/23 11:16:11;;;;;;;1.40;1.40;;;;;;;18.10;40.32;96663.13;4982480;28;20058;-58
2024/02/23 11:18:41;;;;;;;1.73;1.73;;;;;;;18.19;40.06;96662.59;4966049;28;20059;-60
2024/02/23 11:21:09;;;;;;;1.70;1.70;;;;;;;18.26;39.66;96637.19;4978019;28;20535;-59
2024/02/23 11:23:43;;;;;;;1.63;1.63;;;;;;;18.36;38.93;96657.84;4984671;28;20061;-65
2024/02/23 11:26:11;;;;;;;;;;;;;;;18.56;39.14;96651.03;4967658;28;20146;-66
2024/02/23 11:28:54;;;;;;;1.67;1.67;;;;;;;17.92;39.16;96622.66;4966917;28;19932;-60
2024/02/23 11:31:28;;;;;;;1.50;1.50;;;;;;;18.17;39.14;96634.19;4970327;28;20052;-66
2024/02/23 11:33:56;;;;;;;1.73;1.73;;;;;;;18.42;38.19;96651.34;4979883;28;20050;-65
2024/02/23 11:36:36;;;;;;;1.70;1.70;;;;;;;18.33;37.43;96631.47;4967308;28;20125;-62
2024/02/23 11:39:02;;;;;;;1.80;1.80;;;;;;;18.45;37.88;96633.63;4968109;28;20067;-58
2024/02/23 11:41:29;;;;;;;1.65;1.65;;;;;;;18.50;36.62;96607.91;4982861;28;20056;-60